Time,TemperatureF,DewpointF,PressureIn,WindDirection,WindDirectionDegrees,WindSpeedMPH,WindSpeedGustMPH,Humidity,HourlyPrecipIn,Conditions,Clouds,dailyrainin,SoftwareType,DateUTC
2013-08-05 00:02:00,78.0,75.0,30.01,SW,231,2.0,2.0,91,0.00,,,6.50,,2013-08-05 04:02:00,
2013-08-05 00:12:00,78.0,75.0,30.01,SW,226,0.0,0.0,91,0.00,,,2.80,,2013-08-05 04:12:00,
2013-08-05 00:22:00,78.0,75.0,30.01,SW,226,0.0,0.0,90,0.00,,,2.80,,2013-08-05 04:22:00,
2013-08-05 00:32:00,78.0,75.0,30.01,SSW,211,0.0,1.0,90,0.00,,,2.80,,2013-08-05 04:32:00,
2013-08-05 00:43:00,78.0,75.0,30.01,SSW,211,0.0,1.0,90,0.00,,,2.80,,2013-08-05 04:43:00,
2013-08-05 00:52:00,78.0,75.0,30.01,SW,229,0.0,0.0,90,0.00,,,2.80,,2013-08-05 04:52:00,
2013-08-05 01:02:00,78.0,75.0,30.01,SW,229,0.0,0.0,90,0.00,,,2.80,,2013-08-05 05:02:00,
2013-08-05 01:12:00,79.0,76.0,30.02,WSW,248,0.0,0.0,91,0.00,,,2.80,,2013-08-05 05:12:00,
2013-08-05 01:22:00,78.0,75.0,30.01,WSW,248,0.0,0.0,91,0.00,,,2.80,,2013-08-05 05:22:00,
2013-08-05 01:32:00,78.0,75.0,30.01,WSW,242,0.0,1.0,91,0.00,,,2.80,,2013-08-05 05:32:00,
2013-08-05 01:42:00,78.0,75.0,30.01,WSW,242,0.0,1.0,91,0.00,,,2.80,,2013-08-05 05:42:00,
2013-08-05 01:53:00,78.0,75.0,30.01,WSW,242,0.0,1.0,91,0.00,,,2.80,,2013-08-05 05:53:00,
2013-08-05 02:02:00,78.0,75.0,30.01,SW,225,0.0,0.0,91,0.00,,,2.80,,2013-08-05 06:02:00,
2013-08-05 02:12:00,78.0,75.0,30.01,SW,225,0.0,0.0,91,0.00,,,2.80,,2013-08-05 06:12:00,
2013-08-05 02:22:00,78.0,75.0,30.00,WSW,239,2.0,2.0,91,0.00,,,2.80,,2013-08-05 06:22:00,
2013-08-05 02:32:00,78.0,75.0,30.00,WSW,242,0.0,0.0,91,0.00,,,2.80,,2013-08-05 06:32:00,
2013-08-05 02:43:00,78.0,75.0,30.00,SSW,193,0.0,0.0,91,0.00,,,2.80,,2013-08-05 06:43:00,
2013-08-05 02:52:00,78.0,75.0,30.00,SSW,193,0.0,0.0,91,0.00,,,2.80,,2013-08-05 06:52:00,
2013-08-05 03:02:00,78.0,75.0,29.99,SSW,193,0.0,0.0,91,0.00,,,2.80,,2013-08-05 07:02:00,
2013-08-05 03:12:00,78.0,75.0,29.98,SSW,207,0.0,0.0,91,0.00,,,2.80,,2013-08-05 07:12:00,
2013-08-05 03:22:00,78.0,75.0,29.98,SSW,194,0.0,0.0,91,0.00,,,2.80,,2013-08-05 07:22:00,
2013-08-05 03:32:00,78.0,75.0,29.98,SSW,194,0.0,0.0,91,0.00,,,2.80,,2013-08-05 07:32:00,
2013-08-05 03:43:00,78.0,75.0,29.98,SSW,194,0.0,0.0,91,0.00,,,2.80,,2013-08-05 07:43:00,
2013-08-05 03:52:00,78.0,75.0,29.98,SSW,194,0.0,0.0,91,0.00,,,2.80,,2013-08-05 07:52:00,
2013-08-05 04:02:00,78.0,75.0,29.98,SSW,194,0.0,0.0,91,0.00,,,2.80,,2013-08-05 08:02:00,
2013-08-05 05:10:00,78.0,75.0,29.96,WSW,248,0.0,0.0,91,0.00,,,2.80,,2013-08-05 09:10:00,
2013-08-05 05:42:00,78.0,75.0,29.96,WSW,248,0.0,0.0,91,0.00,,,2.80,,2013-08-05 09:42:00,
2013-08-05 05:48:00,78.0,75.0,29.96,WSW,248,0.0,0.0,91,0.00,,,2.80,,2013-08-05 09:48:00,
2013-08-05 05:53:00,78.0,75.0,29.96,WSW,248,0.0,0.0,91,0.00,,,2.80,,2013-08-05 09:53:00,
2013-08-05 06:49:00,78.0,75.0,29.97,SSW,208,0.0,0.0,91,0.00,,,2.80,,2013-08-05 10:49:00,
2013-08-05 07:09:00,78.0,75.0,29.98,SW,222,0.0,0.0,91,0.00,,,2.80,,2013-08-05 11:09:00,
2013-08-05 07:33:00,79.0,76.0,29.99,SW,236,0.0,0.0,92,0.00,,,2.80,,2013-08-05 11:33:00,
2013-08-05 07:37:00,78.0,75.0,29.99,SSW,207,0.0,0.0,92,0.00,,,2.80,,2013-08-05 11:37:00,
2013-08-05 07:49:00,78.0,75.0,29.99,SSW,207,0.0,0.0,92,0.00,,,2.80,,2013-08-05 11:49:00,
2013-08-05 07:58:00,79.0,76.0,29.99,SW,236,0.0,0.0,92,0.00,,,2.80,,2013-08-05 11:58:00,
2013-08-05 08:17:00,79.0,76.0,29.99,SW,236,0.0,0.0,92,0.00,,,2.80,,2013-08-05 12:17:00,
2013-08-05 08:27:00,79.0,76.0,29.99,SW,236,0.0,0.0,92,0.00,,,2.80,,2013-08-05 12:27:00,
2013-08-05 08:53:00,81.0,77.0,30.00,WNW,302,3.0,3.0,89,0.00,,,2.80,,2013-08-05 12:53:00,
2013-08-05 09:02:00,81.0,77.0,30.00,WNW,302,3.0,3.0,89,0.00,,,2.80,,2013-08-05 13:02:00,
2013-08-05 09:13:00,83.0,78.0,30.01,West,273,5.0,6.0,84,0.00,,,2.80,,2013-08-05 13:13:00,
2013-08-05 09:28:00,83.0,77.0,30.01,WNW,295,5.0,7.0,82,0.00,,,2.80,,2013-08-05 13:28:00,
2013-08-05 09:39:00,83.0,77.0,30.01,WNW,295,5.0,7.0,82,0.00,,,2.80,,2013-08-05 13:39:00,
2013-08-05 09:43:00,83.0,77.0,30.01,WNW,295,5.0,7.0,82,0.00,,,2.80,,2013-08-05 13:43:00,
2013-08-05 09:54:00,83.0,77.0,30.01,WNW,295,5.0,7.0,82,0.00,,,2.80,,2013-08-05 13:54:00,
2013-08-05 10:06:00,83.0,77.0,30.01,WNW,295,5.0,7.0,82,0.00,,,2.80,,2013-08-05 14:06:00,
2013-08-05 10:42:00,87.0,77.0,30.00,WNW,294,6.0,7.0,72,0.00,,,2.80,,2013-08-05 14:42:00,
2013-08-05 10:49:00,87.0,77.0,30.00,WNW,294,6.0,7.0,72,0.00,,,2.80,,2013-08-05 14:49:00,
2013-08-05 11:08:00,87.0,77.0,30.00,WNW,294,6.0,7.0,72,0.00,,,2.80,,2013-08-05 15:08:00,
2013-08-05 11:15:00,87.0,77.0,30.00,WNW,294,6.0,7.0,72,0.00,,,2.80,,2013-08-05 15:15:00,
2013-08-05 13:16:00,89.0,74.0,29.99,NNE,17,1.0,5.0,62,0.00,,,2.80,,2013-08-05 17:16:00,
2013-08-05 13:22:00,89.0,74.0,29.99,NNE,17,1.0,5.0,62,0.00,,,2.80,,2013-08-05 17:22:00,
2013-08-05 13:38:00,87.0,78.0,30.00,SSE,165,1.0,2.0,75,0.00,,,2.80,,2013-08-05 17:38:00,
2013-08-05 13:48:00,87.0,78.0,30.00,SSE,165,1.0,2.0,75,0.00,,,2.80,,2013-08-05 17:48:00,
2013-08-05 13:57:00,80.0,75.0,29.99,SSE,162,2.0,3.0,84,0.00,,,2.80,,2013-08-05 17:57:00,
2013-08-05 14:08:00,80.0,75.0,29.99,SSE,162,2.0,3.0,84,0.00,,,2.80,,2013-08-05 18:08:00,
2013-08-05 14:13:00,80.0,75.0,29.99,SSE,162,2.0,3.0,84,0.00,,,2.80,,2013-08-05 18:13:00,
2013-08-05 14:45:00,85.0,77.0,29.97,SSE,149,5.0,5.0,77,2.50,,,2.80,,2013-08-05 18:45:00,
2013-08-05 14:54:00,85.0,77.0,29.97,SSE,149,5.0,5.0,77,2.50,,,2.80,,2013-08-05 18:54:00,
2013-08-05 15:05:00,85.0,77.0,29.97,SSE,149,5.0,5.0,77,2.50,,,2.80,,2013-08-05 19:05:00,
2013-08-05 15:14:00,85.0,77.0,29.97,SSE,149,5.0,5.0,77,2.50,,,2.80,,2013-08-05 19:14:00,
2013-08-05 15:27:00,88.0,76.0,29.95,SSE,159,5.0,5.0,68,0.00,,,2.80,,2013-08-05 19:27:00,
2013-08-05 15:39:00,85.0,75.0,29.96,WSW,248,7.0,10.0,72,0.00,,,2.80,,2013-08-05 19:39:00,
2013-08-05 15:53:00,85.0,76.0,29.96,SW,214,6.0,9.0,74,0.00,,,2.80,,2013-08-05 19:53:00,
2013-08-05 16:09:00,84.0,76.0,29.96,WSW,242,3.0,7.0,76,0.00,,,2.80,,2013-08-05 20:09:00,
2013-08-05 16:15:00,84.0,76.0,29.96,WSW,242,3.0,7.0,76,0.00,,,2.80,,2013-08-05 20:15:00,
2013-08-05 16:28:00,84.0,76.0,29.96,WSW,242,3.0,7.0,76,0.00,,,2.80,,2013-08-05 20:28:00,
2013-08-05 16:37:00,84.0,76.0,29.96,WSW,242,3.0,7.0,76,0.00,,,2.80,,2013-08-05 20:37:00,
2013-08-05 16:48:00,83.0,74.0,29.96,South,179,3.0,5.0,74,0.00,,,2.80,,2013-08-05 20:48:00,
2013-08-05 17:19:00,85.0,74.0,29.96,WNW,291,4.0,6.0,70,0.00,,,2.80,,2013-08-05 21:19:00,
2013-08-05 17:26:00,85.0,74.0,29.96,WNW,291,4.0,6.0,70,0.00,,,2.80,,2013-08-05 21:26:00,
2013-08-05 17:34:00,85.0,74.0,29.93,SW,236,4.0,4.0,69,0.00,,,2.80,,2013-08-05 21:34:00,
2013-08-05 17:47:00,85.0,73.0,29.93,SW,235,6.0,6.0,67,0.00,,,2.80,,2013-08-05 21:47:00,
2013-08-05 17:54:00,85.0,74.0,29.93,West,262,5.0,7.0,69,0.00,,,2.80,,2013-08-05 21:54:00,
2013-08-05 18:05:00,84.0,74.0,29.93,West,260,5.0,5.0,72,0.00,,,2.80,,2013-08-05 22:05:00,
2013-08-05 18:37:00,84.0,75.0,29.94,West,273,3.0,3.0,75,0.00,,,2.80,,2013-08-05 22:37:00,
2013-08-05 18:44:00,84.0,75.0,29.94,West,273,3.0,3.0,75,0.00,,,2.80,,2013-08-05 22:44:00,
2013-08-05 18:53:00,84.0,75.0,29.94,West,273,3.0,3.0,75,0.00,,,2.80,,2013-08-05 22:53:00,
2013-08-05 19:07:00,82.0,74.0,29.93,WNW,285,3.0,6.0,78,0.00,,,2.80,,2013-08-05 23:07:00,
2013-08-05 19:16:00,82.0,74.0,29.93,NW,318,6.0,7.0,78,0.00,,,2.80,,2013-08-05 23:16:00,
2013-08-05 19:27:00,81.0,72.0,29.94,West,270,8.0,8.0,74,0.00,,,2.80,,2013-08-05 23:27:00,
2013-08-05 19:33:00,81.0,72.0,29.94,West,270,8.0,8.0,74,0.00,,,2.80,,2013-08-05 23:33:00,
2013-08-05 19:46:00,80.0,72.0,29.95,NW,307,6.0,6.0,78,0.00,,,2.80,,2013-08-05 23:46:00,
2013-08-05 19:57:00,80.0,73.0,29.96,NW,307,5.0,6.0,79,0.00,,,2.80,,2013-08-05 23:57:00,
2013-08-05 20:02:00,80.0,74.0,29.96,NW,316,4.0,5.0,81,0.00,,,2.80,,2013-08-06 00:02:00,
2013-08-05 20:15:00,80.0,74.0,29.96,WNW,293,4.0,4.0,82,0.00,,,2.80,,2013-08-06 00:15:00,
2013-08-05 20:24:00,79.0,73.0,29.96,NW,326,1.0,3.0,83,0.00,,,2.80,,2013-08-06 00:24:00,
2013-08-05 20:37:00,79.0,73.0,29.97,NW,311,2.0,2.0,83,0.00,,,2.80,,2013-08-06 00:37:00,
2013-08-05 20:45:00,79.0,74.0,29.97,NW,326,2.0,5.0,84,0.00,,,2.80,,2013-08-06 00:45:00,
2013-08-05 20:57:00,79.0,74.0,29.97,NNW,335,1.0,1.0,84,0.00,,,2.80,,2013-08-06 00:57:00,
2013-08-05 21:09:00,79.0,74.0,29.97,NNW,336,4.0,4.0,84,0.00,,,2.80,,2013-08-06 01:09:00,
2013-08-05 21:14:00,79.0,74.0,29.97,NNW,342,3.0,3.0,84,0.00,,,2.80,,2013-08-06 01:14:00,
2013-08-05 21:28:00,79.0,74.0,29.97,North,0,2.0,5.0,84,0.00,,,2.80,,2013-08-06 01:28:00,
2013-08-05 21:39:00,79.0,74.0,29.97,North,0,2.0,5.0,84,0.00,,,2.80,,2013-08-06 01:39:00,
2013-08-05 21:49:00,79.0,73.0,29.96,West,281,2.0,3.0,82,0.00,,,2.80,,2013-08-06 01:49:00,
2013-08-05 22:09:00,79.0,73.0,29.96,West,281,2.0,3.0,82,0.00,,,2.80,,2013-08-06 02:09:00,
2013-08-05 22:15:00,78.0,72.0,29.96,West,259,1.0,1.0,83,0.00,,,2.80,,2013-08-06 02:15:00,
2013-08-05 22:26:00,78.0,73.0,29.95,West,267,1.0,0.0,84,0.00,,,2.80,,2013-08-06 02:26:00,
2013-08-05 22:33:00,78.0,73.0,29.95,West,267,1.0,0.0,84,0.00,,,2.80,,2013-08-06 02:33:00,
2013-08-05 22:46:00,78.0,73.0,29.95,WSW,238,0.0,0.0,84,0.00,,,2.80,,2013-08-06 02:46:00,
2013-08-05 22:52:00,78.0,73.0,29.95,WSW,238,0.0,0.0,84,0.00,,,2.80,,2013-08-06 02:52:00,
2013-08-05 23:01:00,78.0,73.0,29.95,WSW,238,0.0,0.0,84,0.00,,,2.80,,2013-08-06 03:01:00,
2013-08-05 23:16:00,78.0,73.0,29.95,WSW,238,0.0,0.0,84,0.00,,,2.80,,2013-08-06 03:16:00,
2013-08-05 23:45:00,78.0,73.0,29.96,West,271,0.0,2.0,86,0.00,,,2.80,,2013-08-06 03:45:00,
2013-08-05 23:52:00,77.0,73.0,29.96,WSW,238,0.0,4.0,87,0.00,,,2.80,,2013-08-06 03:52:00,